createdAt,value
2018-11-27T05:26:30.994Z,91.70
2018-11-27T05:29:01.426Z,93.50
2018-11-27T05:31:31.922Z,93.40
2018-11-27T05:34:08.119Z,93.40
2018-11-27T05:36:38.980Z,93.30
2018-11-27T05:39:11.173Z,93.30
2018-11-27T05:41:41.778Z,93.30
2018-11-27T05:56:30.865Z,93.40
2018-11-27T05:59:24.324Z,93.30
2018-11-27T06:01:55.298Z,93.30
2018-11-27T06:04:26.297Z,93.30
2018-11-27T06:06:58.160Z,93.60
2018-11-27T09:26:52.785Z,92.50
2018-11-27T09:29:26.941Z,92.30
2018-11-27T09:31:58.257Z,92.30
2018-11-27T09:34:29.940Z,92.30
2018-11-27T09:37:01.310Z,92.20
2018-11-27T09:39:32.568Z,92.20
2018-11-27T09:42:03.950Z,92.00
2018-11-27T09:44:34.967Z,92.10
2018-11-27T09:47:06.128Z,92.10
2018-11-27T09:49:37.222Z,92.20
2018-11-27T09:52:08.311Z,92.20
2018-11-27T09:54:39.476Z,92.20
2018-11-27T09:57:10.671Z,92.10
2018-11-27T09:59:41.977Z,92.20
2018-11-27T10:02:15.012Z,92.20
2018-11-27T10:04:46.608Z,92.10
2018-11-27T10:07:18.063Z,92.10
2018-11-27T10:09:49.380Z,91.90
2018-11-27T10:12:21.681Z,91.90
2018-11-27T10:14:52.076Z,91.80
2018-11-27T10:17:23.220Z,91.80
2018-11-27T10:19:54.192Z,91.60
2018-11-27T10:22:25.347Z,91.60
2018-11-27T10:24:56.458Z,91.70
2018-11-27T10:27:27.921Z,91.70
2018-11-27T10:29:59.300Z,91.60
2018-11-27T10:32:30.589Z,91.60
2018-11-27T10:35:02.569Z,91.70
2018-11-27T10:37:33.931Z,91.80
2018-11-27T10:40:05.482Z,91.90
2018-11-27T10:42:36.889Z,91.80
2018-11-27T10:45:13.128Z,91.70
2018-11-27T10:47:45.322Z,91.40
2018-11-27T10:50:18.033Z,91.60
2018-11-27T10:52:51.223Z,91.40
2018-11-27T10:55:23.294Z,91.50
2018-11-27T10:57:56.579Z,91.40
2018-11-27T11:00:33.657Z,91.40
2018-11-27T11:03:25.231Z,91.10
2018-11-27T11:05:57.592Z,91.40
2018-11-27T11:08:28.932Z,91.10
2018-11-27T11:11:00.797Z,91.10
2018-11-27T11:13:32.923Z,91.20
2018-11-27T11:16:04.189Z,91.10
2018-11-27T11:18:35.429Z,90.90
2018-11-27T11:21:06.850Z,91.10
2018-11-27T11:23:37.945Z,90.90
2018-11-27T11:26:09.654Z,90.90
2018-11-27T11:28:40.838Z,90.90
2018-11-27T11:31:12.944Z,90.90
2018-11-27T11:33:44.313Z,90.80
2018-11-27T11:36:15.793Z,90.50
2018-11-27T11:38:49.172Z,90.80
2018-11-27T11:41:21.273Z,90.70
2018-11-27T11:43:52.823Z,90.60
2018-11-27T11:46:24.492Z,90.70
2018-11-27T11:49:01.928Z,90.70
2018-11-27T11:51:30.387Z,90.80
2018-11-27T11:54:02.372Z,90.60
2018-11-27T11:56:34.044Z,90.50
2018-11-27T11:59:05.544Z,90.30
2018-11-27T12:01:38.081Z,90.60
2018-11-27T12:04:09.390Z,90.40
2018-11-27T12:06:41.680Z,90.20
2018-11-27T12:09:13.414Z,90.20
2018-11-27T12:11:46.608Z,90.30
2018-11-27T12:14:17.917Z,90.20
2018-11-27T12:16:48.953Z,90.20
2018-11-27T12:19:20.221Z,90.20
2018-11-27T12:21:54.501Z,90.10
2018-11-27T12:24:25.571Z,90.20
2018-11-27T12:26:56.587Z,90.00
2018-11-27T12:29:29.275Z,90.30
2018-11-27T12:32:00.510Z,90.30
2018-11-27T12:34:38.071Z,90.40
2018-11-27T12:37:09.186Z,90.50
2018-11-27T12:39:40.264Z,90.30
2018-11-27T12:42:12.019Z,90.50
2018-11-27T12:44:42.702Z,90.50
2018-11-27T12:47:13.741Z,90.40
2018-11-27T12:49:44.888Z,90.30
2018-11-27T12:52:16.053Z,90.40
2018-11-27T12:54:47.012Z,90.40
2018-11-27T12:57:17.941Z,90.30
2018-11-27T12:59:48.886Z,88.90
2018-11-27T13:02:19.848Z,89.50
2018-11-27T13:04:50.845Z,90.20
2018-11-27T13:07:22.037Z,90.10
2018-11-27T13:09:53.126Z,90.30
2018-11-27T13:12:24.045Z,90.40
2018-11-27T13:14:54.888Z,89.70
2018-11-27T13:17:25.672Z,89.90
2018-11-27T13:19:56.604Z,89.80
2018-11-27T13:22:27.499Z,89.30
2018-11-27T13:24:58.509Z,88.20
2018-11-27T13:27:29.486Z,89.30
2018-11-27T13:30:00.499Z,89.40
2018-11-27T13:32:31.564Z,89.10
2018-11-27T13:35:02.917Z,88.40
2018-11-27T13:37:34.003Z,89.30
2018-11-27T13:40:05.050Z,89.50
2018-11-27T13:42:36.117Z,89.70
2018-11-27T13:45:10.661Z,89.70
2018-11-27T13:47:41.893Z,89.30
2018-11-27T13:50:17.610Z,89.50
2018-11-27T13:52:48.687Z,89.50
2018-11-27T13:55:24.521Z,88.90
2018-11-27T13:57:55.457Z,88.80
2018-11-27T14:00:26.657Z,88.20
2018-11-27T14:02:59.240Z,88.60
2018-11-27T14:05:31.161Z,88.50
2018-11-27T14:08:04.388Z,87.30
2018-11-27T14:10:39.715Z,86.80
2018-11-27T14:13:12.786Z,87.10
2018-11-27T14:15:43.602Z,87.10
2018-11-27T14:18:15.418Z,88.10
2018-11-27T14:20:48.699Z,87.50
2018-11-27T14:23:20.812Z,87.90
2018-11-27T14:26:05.074Z,87.90
2018-11-27T14:28:42.423Z,88.10
2018-11-27T14:31:15.914Z,87.40
2018-11-27T14:34:11.564Z,85.90
2018-11-27T14:37:21.496Z,85.00
2018-11-27T14:49:16.620Z,86.30
2018-11-27T14:52:22.391Z,86.90
2018-11-27T14:55:07.903Z,87.00
2018-11-27T14:57:44.183Z,86.90
2018-11-27T15:00:17.493Z,87.80
2018-11-27T15:03:03.240Z,87.70
2018-11-27T15:05:35.705Z,87.80
2018-11-27T15:08:13.818Z,87.90
2018-11-27T16:33:31.133Z,88.90
2018-11-27T17:26:10.915Z,88.60
2018-11-27T17:28:50.631Z,88.40
2018-11-27T17:37:34.334Z,88.50
2018-11-27T17:41:14.239Z,88.00
2018-11-27T17:44:16.366Z,88.10
2018-11-27T18:18:03.413Z,87.90
2018-11-27T18:35:15.193Z,88.00
2018-11-27T18:38:16.275Z,85.80
